• Join FlightAware (Why Join?)
  • Login
  • US Flag 
01:07AM EDT


 

Airport Tracker/Info


-or-


 

Live Flight TrackerFlight Track Log ✈ UAL4335 ✈ 09-Apr-2013 ✈ KIAH - KABQ

Flight Track Log - Related Links

Times and Time Zones

All times are in EDT time to prevent confusion due to time zone crossing. See the UAL4335 flight status page for this flight to view local times or setup timezone preferences in your user account.

Time Position Orientation Groundspeed Altitude Reporting Facility
EDT Latitude Longitude Course Direction KTS MPH feet Rate Location/Type
03:54PM 29.9597 -95.3439 291° West 147 169 700  Level Houston Center
03:56PM 29.9103 -95.3872 217° Southwest 233 268 3,100 2,100 Climbing Houston Center
03:56PM 29.8983 -95.4092 238° Southwest 250 288 3,900 2,700 Climbing Houston Center
03:57PM 29.8986 -95.4600 270° West 253 291 5,900 2,460 Climbing Houston Center
03:58PM 30.0338 -95.8057 276° West  Level FlightAware Approximate
03:58PM 29.9269 -95.5622 288° West 278 320 8,800  Level Houston Center
03:59PM 30.0438 -95.9246 276° West  Level FlightAware Approximate
03:59PM 29.9592 -95.6200 303° West 285 328 10,500  Level Houston Center
04:00PM 30.0636 -96.0407 291° West  Level FlightAware Approximate
04:00PM 29.9978 -95.7075 297° West 311 358 11,700  Level Houston Center
04:01PM 30.0236 -95.8311 284° West 336 387 13,100 1,440 Climbing Houston Center
04:02PM 30.0461 -95.9406 283° West 350 403 14,700 1,500 Climbing Houston Center
04:03PM 30.0703 -96.0586 283° West 354 407 16,200 1,380 Climbing Houston Center
04:04PM 30.0883 -96.1725 280° West 361 415 17,600 1,260 Climbing Houston Center
04:05PM 30.1058 -96.2875 280° West 366 421 18,900 1,320 Climbing Houston Center
04:06PM 30.1233 -96.4061 280° West 376 433 20,400 1,320 Climbing Houston Center
04:07PM 30.1433 -96.5353 280° West 378 435 21,700 1,140 Climbing Houston Center
04:08PM 30.1617 -96.6592 280° West 385 443 22,800 1,020 Climbing Houston Center
04:09PM 30.1811 -96.7861 280° West 393 452 23,900 1,140 Climbing Houston Center
04:10PM 30.2033 -96.9372 280° West 401 461 25,200 1,080 Climbing Houston Center
04:11PM 30.2219 -97.0636 280° West 396 456 26,200 840 Climbing Houston Center
04:12PM 30.2519 -97.1897 285° West 405 466 27,000 1,620 Climbing Houston Center
04:13PM 30.2839 -97.3106 287° West 392 451 29,600 2,340 Climbing Houston Center
04:14PM 30.3128 -97.4139 288° West 342 394 31,900 1,800 Climbing Houston Center
04:15PM 30.3375 -97.5128 286° West 320 368 33,400 1,200 Climbing Houston Center
04:16PM 30.3636 -97.6100 287° West 314 361 34,500 1,140 Climbing Houston Center
04:17PM 30.3872 -97.7072 286° West 311 358 35,800 720 Climbing Houston Center
04:18PM 30.4172 -97.8172 288° West 306 352 36,000 60 Climbing Houston Center
04:19PM 30.4425 -97.9214 286° West 328 377 36,000  Level Houston Center
04:20PM 30.4700 -98.0308 286° West 347 399 36,000  Level Houston Center
04:21PM 30.5000 -98.1489 286° West 373 429 36,000  Level Houston Center
04:23PM 30.5314 -98.2719 287° West 390 449 36,000  Level Houston Center
04:24PM 30.5642 -98.3986 287° West 403 464 36,000  Level Houston Center
04:25PM 30.5947 -98.5217 286° West 394 453 36,000  Level Houston Center
04:26PM 30.6244 -98.6428 286° West 387 445 36,000  Level Houston Center
04:27PM 30.6603 -98.7867 286° West 393 452 36,000  Level Houston Center
04:28PM 30.6914 -98.9111 286° West 398 458 36,000  Level Houston Center
04:29PM 30.7211 -99.0328 286° West 390 449 36,000  Level Houston Center
04:30PM 30.7528 -99.1578 286° West 382 440 36,000  Level Houston Center
04:31PM 30.7814 -99.2747 286° West 379 436 36,000  Level Houston Center
04:32PM 30.8094 -99.3947 285° West 388 447 36,000  Level Houston Center
04:33PM 30.8372 -99.5156 285° West 383 441 36,000  Level Houston Center
04:34PM 30.8669 -99.6389 286° West 397 457 36,000  Level Houston Center
04:35PM 30.9042 -99.7878 286° West 400 460 36,000  Level Houston Center
04:36PM 30.9333 -99.9125 285° West 397 457 36,000  Level Houston Center
04:37PM 30.9622 -100.0317 286° West 384 442 36,000  Level Houston Center
04:38PM 30.9894 -100.1475 285° West 374 430 36,000  Level Houston Center
04:39PM 31.0161 -100.2619 285° West 368 423 36,000  Level Houston Center
04:40PM 31.0492 -100.4031 285° West 376 433 36,000  Level Houston Center
04:41PM 31.0967 -100.5186 296° West 395 455 36,000  Level Houston Center
04:42PM 31.1275 -100.5825 299° West 392 451 36,000  Level Fort Worth Center
04:43PM 31.1875 -100.6792 306° West 401 461 36,000  Level Fort Worth Center
04:44PM 31.2514 -100.7908 304° West 412 474 36,000 -60 Level Fort Worth Center
04:45PM 31.3131 -100.9000 303° West 412 474 35,900  Descending Fort Worth Center
04:45PM 31.3478 -100.9556 306° West 410 472 36,000 60 Climbing Houston Center
04:46PM 31.3850 -101.0147 306° West 404 465 36,000 -120 Level Fort Worth Center
04:47PM 31.4614 -101.1222 310° West 409 471 35,900  Descending Fort Worth Center
04:48PM 31.5397 -101.2256 312° West 422 486 36,000  Climbing Fort Worth Center
04:49PM 31.6158 -101.3286 311° West 422 486 35,900  Descending Fort Worth Center
04:50PM 31.6939 -101.4319 312° West 422 486 36,000  Climbing Fort Worth Center
04:51PM 31.7739 -101.5381 312° West 422 486 36,000  Level Fort Worth Center
04:52PM 31.8539 -101.6444 312° West 422 486 36,000  Level Fort Worth Center
04:53PM 31.9317 -101.7533 310° West 422 486 36,000  Level Fort Worth Center
04:54PM 32.0094 -101.8572 311° West 422 486 36,000  Level Fort Worth Center
04:55PM 32.0889 -101.9692 310° West 433 498 36,000  Level Fort Worth Center
04:56PM 32.1661 -102.0808 309° West 433 498 36,000  Level Fort Worth Center
04:57PM 32.2436 -102.1881 311° West 433 498 36,000  Level Fort Worth Center
04:58PM 32.3231 -102.2956 311° West 433 498 36,000  Level Fort Worth Center
04:59PM 32.4019 -102.4081 310° West 438 504 36,000  Level Fort Worth Center
05:00PM 32.4831 -102.5183 311° West 444 511 36,000  Level Fort Worth Center
05:01PM 32.5542 -102.6183 310° West 444 511 36,000  Level Fort Worth Center
05:02PM 32.6372 -102.7294 312° West 444 511 36,000  Level Fort Worth Center
05:03PM 32.7200 -102.8428 311° West 449 517 36,000  Level Fort Worth Center
05:04PM 32.8636 -103.0461 310° West 457 526 36,000  Level Albuquerque Center
05:05PM 32.9444 -103.1608 310° West 455 524 36,000  Level Albuquerque Center
05:07PM 33.0242 -103.2733 310° West 449 517 36,000  Level Albuquerque Center
05:08PM 33.1169 -103.4053 310° West 438 504 36,000  Level Albuquerque Center
05:09PM 33.1928 -103.5156 309° West 432 497 36,000  Level Albuquerque Center
05:10PM 33.2703 -103.6242 310° West 431 496 36,000  Level Albuquerque Center
05:11PM 33.3547 -103.7433 310° West 437 503 36,000  Level Albuquerque Center
05:12PM 33.4342 -103.8553 310° West 441 507 36,000  Level Albuquerque Center
05:13PM 33.5189 -103.9778 310° West 445 512 36,000  Level Albuquerque Center
05:14PM 33.5981 -104.0933 309° West 448 516 36,000 -300 Level Albuquerque Center
05:15PM 33.6817 -104.2156 309° West 444 511 35,500 -1,020 Descending Albuquerque Center
05:16PM 33.7594 -104.3297 309° West 443 510 34,000 -1,500 Descending Albuquerque Center
05:17PM 33.8350 -104.4394 310° West 431 496 32,500 -1,020 Descending Albuquerque Center
05:18PM 33.9131 -104.5533 310° West 414 476 32,000 -300 Descending Albuquerque Center
05:19PM 33.9825 -104.6558 309° West 398 458 32,000 -360 Level Albuquerque Center
05:20PM 34.0550 -104.7575 311° West 396 456 31,300 -1,260 Descending Albuquerque Center
05:21PM 34.1292 -104.8694 309° West 411 473 29,400 -1,980 Descending Albuquerque Center
05:22PM 34.2069 -104.9844 309° West 429 494 27,300 -1,680 Descending Albuquerque Center
05:23PM 34.2867 -105.1028 309° West 441 507 26,000 -660 Descending Albuquerque Center
05:24PM 34.3664 -105.2206 309° West 445 512 26,000  Level Albuquerque Center
05:25PM 34.4456 -105.3389 309° West 446 513 26,000  Level Albuquerque Center
05:26PM 34.5244 -105.4569 309° West 446 513 26,000 -540 Level Albuquerque Center
05:27PM 34.6031 -105.5739 309° West 444 511 24,900 -1,920 Descending Albuquerque Center
05:28PM 34.6917 -105.7069 309° West 434 499 22,100 -2,580 Descending Albuquerque Center
05:29PM 34.7511 -105.8036 307° West 406 467 19,900 -2,400 Descending Albuquerque Center
05:30PM 34.8275 -105.9139 310° West 382 440 17,200 -2,400 Descending Albuquerque Center
05:31PM 34.8769 -106.0136 301° West 362 417 15,100 -2,220 Descending Albuquerque Center
05:32PM 34.8811 -106.1317 272° West 350 403 13,000 -1,560 Descending Albuquerque Center
05:33PM 34.8853 -106.2394 273° West 322 371 12,000 -540 Descending Albuquerque Center
05:34PM 34.8872 -106.3347 271° West 271 312 12,000  Level Albuquerque Center
05:35PM 34.8903 -106.4350 272° West 290 334 12,000 -180 Level Albuquerque Center
05:36PM 34.8825 -106.5250 264° West 265 305 11,700 -900 Descending Albuquerque Center
05:37PM 34.8583 -106.6064 250° West 250 288 10,300 -1,440 Descending Albuquerque Center
05:38PM 34.8342 -106.6875 250° West 252 290 8,800 -1,380 Descending Albuquerque Center
05:39PM 34.8669 -106.7647 297° West 235 270 7,500 -660 Descending Albuquerque Center
05:40PM 34.9172 -106.7725 353° North 233 268 7,500 -120 Level Albuquerque Center
05:41PM 34.9519 -106.7144 54° Northeast 202 232 7,300 -240 Descending Albuquerque Center